KLWV/LWV METAR and TAF weather

Enter ICAO airport designator
Station Type Date Time Source
KLWV METAR 2020/09/25 19:53 UTC NOAA

KLWV 251953Z AUTO VRB06KT 10SM CLR 27/14 A2995 RMK AO2 SLP138 T02720139


Station Type Date Time Source
KLWV Decoded METAR 2020/09/25 19:53 UTC NOAA

LAWRENCEVILLE-VINCENNES INTERNATIONAL , IL, United States (KLWV) 38-46N 87-36W 131M
Sep 25, 2020 - 03:53 PM EDT / 2020.09.25 1953 UTC
Wind: Variable at 7 MPH (6 KT):0
Visibility: 10 mile(s):0
Sky conditions: clear
Temperature: 81.0 F (27.2 C)
Dew Point: 57.0 F (13.9 C)
Relative Humidity: 44%
Pressure (altimeter): 29.95 in. Hg (1014 hPa)
ob: KLWV 251953Z AUTO VRB06KT 10SM CLR 27/14 A2995 RMK AO2 SLP138 T02720139
cycle: 20

Station Type Date Time Source
KLWV TAF UTC NOAA

Error!

Example: see airport list